Terminal Aerodrome Forecast
Issued by NWS Pueblo, CO

Home | Current Version | Previous Version | Text Only | Print | Product List | Glossary On
Versions: 1 2 3 4 5 6 7 8 9 10 11 12 13 14 15 16 17 18 19 20 21 22 23 24 25 26 27 28 29 30 31 32 33 34 35 36 37 38 39
000
FTUS45 KPUB 281123
TAFPUB
TAF
KPUB 281123Z 2812/2912 33007KT P6SM SCT130 SCT200
     FM281700 36010KT P6SM SCT080 BKN120
     FM282100 03012KT P6SM VCTS SCT060CB BKN110
     FM290200 01008KT P6SM SCT090 SCT150
     FM290500 33006KT P6SM FEW150=

USA.gov is the U.S. government's official web portal to all federal, state and local government web resources and services.